Kezdőlap
METAR-TAF:

METAR-TAF

Repülőterek :

Villacoublay, Franciaország

földrajzi szélesség: 48-46N, földrajzi hosszúság: 002-12E, magasság: 177 m

Jelenlegi meteorológiai megfigyelések

A jelentés 49 perccel ezelõtt készült, 18:00 UTC
Északi szél 6 kt
Hőmérséklet 10°C
Páratartalom 34%
Légköri nyomás 1017 hPa
Látótávolság 10 km, vagy több
felhőtlen 1500 m magasságban, és nincs gomolyfelhõ

METAR: LFPV 011800Z AUTO 01006KT CAVOK 10/M05 Q1017 NOSIG

Idő: 20:49 (18:49 UTC)

Előrejelzés

A jelentés 4 órával és 49 perccel ezelõtt készült, 14:00 UTC
Az előrejelzés 01-én 15 óra UTC és 02-én 15 óra UTC között érvényes
Északi szél 8 kt
Látótávolság 10 km, vagy több
felhőtlen 1500 m magasságban, és nincs gomolyfelhõ

TAF: LFPV 011400Z 0115/0215 01008KT CAVOK

Meteorológiai megfigyelések és előrejelzések több, mint 4000 repülőtéren (METAR és TAF jelentéseket).

A térképen piros és sárga pontok jelzik az elérhető meteorológiai állomásokat.

Mozgassa az egeret a pont fölött, hogy megjelenjen az állomás neve.

Azután kattintson az időjárási megfigyelések és előrejelzések megtekintéséhez.

A térkép megváltoztatása: kattintson a fekete keresztel jelölt zöld gombra ráközelítéshez, a vonallal jelölt zöld gombra távolításhoz, vagy a zöld nyilakra a szomszédos térképek eléréséhez.


METAR-TAF: